sensor_id;sensor_type;location;lat;lon;timestamp;temperature;humidity
71254;HTU21D;59019;47.638;18.966;2024-02-26T00:00:00;9.68;112.18
71254;HTU21D;59019;47.638;18.966;2024-02-26T00:02:31;9.69;112.23
71254;HTU21D;59019;47.638;18.966;2024-02-26T00:05:04;9.71;112.15
71254;HTU21D;59019;47.638;18.966;2024-02-26T00:07:31;9.80;111.45
71254;HTU21D;59019;47.638;18.966;2024-02-26T00:09:57;9.77;111.25
71254;HTU21D;59019;47.638;18.966;2024-02-26T00:12:23;9.79;111.08
71254;HTU21D;59019;47.638;18.966;2024-02-26T00:14:49;9.75;111.16
71254;HTU21D;59019;47.638;18.966;2024-02-26T00:17:15;9.64;111.61
71254;HTU21D;59019;47.638;18.966;2024-02-26T00:19:42;9.66;112.93
71254;HTU21D;59019;47.638;18.966;2024-02-26T00:22:07;9.71;113.77
71254;HTU21D;59019;47.638;18.966;2024-02-26T00:24:34;9.77;113.18
71254;HTU21D;59019;47.638;18.966;2024-02-26T00:27:00;9.77;113.42
71254;HTU21D;59019;47.638;18.966;2024-02-26T00:29:27;9.81;113.58
71254;HTU21D;59019;47.638;18.966;2024-02-26T00:31:53;9.79;113.45
71254;HTU21D;59019;47.638;18.966;2024-02-26T00:34:19;9.82;112.94
71254;HTU21D;59019;47.638;18.966;2024-02-26T00:36:45;9.80;112.90
71254;HTU21D;59019;47.638;18.966;2024-02-26T00:39:11;9.70;112.79
71254;HTU21D;59019;47.638;18.966;2024-02-26T00:41:39;9.74;114.16
71254;HTU21D;59019;47.638;18.966;2024-02-26T00:44:06;9.68;112.82
71254;HTU21D;59019;47.638;18.966;2024-02-26T00:46:32;9.36;115.35
71254;HTU21D;59019;47.638;18.966;2024-02-26T00:48:58;9.39;117.81
71254;HTU21D;59019;47.638;18.966;2024-02-26T00:51:25;9.44;-5.98
71254;HTU21D;59019;47.638;18.966;2024-02-26T00:53:51;9.47;-5.83
71254;HTU21D;59019;47.638;18.966;2024-02-26T00:56:18;9.52;118.11
71254;HTU21D;59019;47.638;18.966;2024-02-26T00:58:44;9.55;118.47
71254;HTU21D;59019;47.638;18.966;2024-02-26T01:01:10;9.56;118.80
71254;HTU21D;59019;47.638;18.966;2024-02-26T01:03:37;9.59;-4.38
71254;HTU21D;59019;47.638;18.966;2024-02-26T01:06:03;9.54;-5.48
71254;HTU21D;59019;47.638;18.966;2024-02-26T01:08:29;9.57;-4.55
71254;HTU21D;59019;47.638;18.966;2024-02-26T01:10:57;9.62;-5.14
71254;HTU21D;59019;47.638;18.966;2024-02-26T01:13:23;9.59;-4.82
71254;HTU21D;59019;47.638;18.966;2024-02-26T01:15:50;9.63;-5.79
71254;HTU21D;59019;47.638;18.966;2024-02-26T01:18:17;9.64;-5.63
71254;HTU21D;59019;47.638;18.966;2024-02-26T01:20:43;9.63;118.03
71254;HTU21D;59019;47.638;18.966;2024-02-26T01:23:09;9.66;117.06
71254;HTU21D;59019;47.638;18.966;2024-02-26T01:25:35;9.66;117.98
71254;HTU21D;59019;47.638;18.966;2024-02-26T01:28:02;9.55;118.96
71254;HTU21D;59019;47.638;18.966;2024-02-26T01:30:29;9.59;118.08
71254;HTU21D;59019;47.638;18.966;2024-02-26T01:32:55;9.65;-4.98
71254;HTU21D;59019;47.638;18.966;2024-02-26T01:35:22;9.65;118.53
71254;HTU21D;59019;47.638;18.966;2024-02-26T01:37:48;9.69;117.74
71254;HTU21D;59019;47.638;18.966;2024-02-26T01:40:15;9.66;115.99
71254;HTU21D;59019;47.638;18.966;2024-02-26T01:42:45;9.63;116.28
71254;HTU21D;59019;47.638;18.966;2024-02-26T01:45:16;9.60;116.99
71254;HTU21D;59019;47.638;18.966;2024-02-26T01:47:51;9.59;116.91
71254;HTU21D;59019;47.638;18.966;2024-02-26T01:50:18;9.61;116.77
71254;HTU21D;59019;47.638;18.966;2024-02-26T01:52:49;9.61;116.63
71254;HTU21D;59019;47.638;18.966;2024-02-26T01:55:19;9.62;115.98
71254;HTU21D;59019;47.638;18.966;2024-02-26T01:57:45;9.35;115.28
71254;HTU21D;59019;47.638;18.966;2024-02-26T02:00:14;9.38;117.99
71254;HTU21D;59019;47.638;18.966;2024-02-26T02:02:41;9.40;-5.08
71254;HTU21D;59019;47.638;18.966;2024-02-26T02:05:08;9.45;-5.44
71254;HTU21D;59019;47.638;18.966;2024-02-26T02:07:40;9.47;118.79
71254;HTU21D;59019;47.638;18.966;2024-02-26T02:10:08;9.49;117.91
71254;HTU21D;59019;47.638;18.966;2024-02-26T02:12:35;9.53;116.91
71254;HTU21D;59019;47.638;18.966;2024-02-26T02:15:06;9.52;116.58
71254;HTU21D;59019;47.638;18.966;2024-02-26T02:17:32;9.50;116.89
71254;HTU21D;59019;47.638;18.966;2024-02-26T02:19:58;9.52;116.53
71254;HTU21D;59019;47.638;18.966;2024-02-26T02:22:25;9.55;116.47
71254;HTU21D;59019;47.638;18.966;2024-02-26T02:24:55;9.47;116.63
71254;HTU21D;59019;47.638;18.966;2024-02-26T02:27:27;9.50;117.55
71254;HTU21D;59019;47.638;18.966;2024-02-26T02:29:54;9.54;117.83
71254;HTU21D;59019;47.638;18.966;2024-02-26T02:32:21;9.56;117.32
71254;HTU21D;59019;47.638;18.966;2024-02-26T02:34:48;9.56;118.79
71254;HTU21D;59019;47.638;18.966;2024-02-26T02:37:14;9.54;118.06
71254;HTU21D;59019;47.638;18.966;2024-02-26T02:39:40;9.56;118.60
71254;HTU21D;59019;47.638;18.966;2024-02-26T02:42:08;9.53;117.54
71254;HTU21D;59019;47.638;18.966;2024-02-26T02:44:35;9.55;-5.38
71254;HTU21D;59019;47.638;18.966;2024-02-26T02:47:01;9.55;118.59
71254;HTU21D;59019;47.638;18.966;2024-02-26T02:49:27;9.40;118.43
71254;HTU21D;59019;47.638;18.966;2024-02-26T02:51:52;9.42;-3.93
71254;HTU21D;59019;47.638;18.966;2024-02-26T02:54:38;9.46;-4.44
71254;HTU21D;59019;47.638;18.966;2024-02-26T02:57:10;9.39;118.64
71254;HTU21D;59019;47.638;18.966;2024-02-26T02:59:37;9.40;-3.18
71254;HTU21D;59019;47.638;18.966;2024-02-26T03:02:04;9.44;-3.80
71254;HTU21D;59019;47.638;18.966;2024-02-26T03:04:30;9.47;-3.92
71254;HTU21D;59019;47.638;18.966;2024-02-26T03:06:57;9.48;-4.26
71254;HTU21D;59019;47.638;18.966;2024-02-26T03:09:24;9.50;118.57
71254;HTU21D;59019;47.638;18.966;2024-02-26T03:11:54;9.48;-5.77
71254;HTU21D;59019;47.638;18.966;2024-02-26T03:14:21;9.42;118.41
71254;HTU21D;59019;47.638;18.966;2024-02-26T03:16:47;9.44;118.89
71254;HTU21D;59019;47.638;18.966;2024-02-26T03:19:16;9.49;-5.82
71254;HTU21D;59019;47.638;18.966;2024-02-26T03:21:42;9.53;118.05
71254;HTU21D;59019;47.638;18.966;2024-02-26T03:24:09;9.56;116.57
71254;HTU21D;59019;47.638;18.966;2024-02-26T03:26:36;9.56;116.52
71254;HTU21D;59019;47.638;18.966;2024-02-26T03:29:03;9.55;116.63
71254;HTU21D;59019;47.638;18.966;2024-02-26T03:31:36;9.53;117.73
71254;HTU21D;59019;47.638;18.966;2024-02-26T03:34:03;9.44;118.07
71254;HTU21D;59019;47.638;18.966;2024-02-26T03:36:30;9.47;118.82
71254;HTU21D;59019;47.638;18.966;2024-02-26T03:38:56;9.46;118.98
71254;HTU21D;59019;47.638;18.966;2024-02-26T03:41:22;9.32;116.67
71254;HTU21D;59019;47.638;18.966;2024-02-26T03:43:49;9.30;-4.46
71254;HTU21D;59019;47.638;18.966;2024-02-26T03:46:16;9.30;-2.04
71254;HTU21D;59019;47.638;18.966;2024-02-26T03:48:42;9.36;1.31
71254;HTU21D;59019;47.638;18.966;2024-02-26T03:51:09;9.37;1.80
71254;HTU21D;59019;47.638;18.966;2024-02-26T03:53:55;9.42;1.38
71254;HTU21D;59019;47.638;18.966;2024-02-26T03:56:21;9.46;1.36
71254;HTU21D;59019;47.638;18.966;2024-02-26T03:58:49;9.51;0.68
71254;HTU21D;59019;47.638;18.966;2024-02-26T04:01:15;9.57;-2.28
71254;HTU21D;59019;47.638;18.966;2024-02-26T04:03:41;9.62;-3.60
71254;HTU21D;59019;47.638;18.966;2024-02-26T04:06:11;9.64;-3.73
71254;HTU21D;59019;47.638;18.966;2024-02-26T04:08:41;9.67;-3.97
71254;HTU21D;59019;47.638;18.966;2024-02-26T04:11:07;9.65;-3.74
71254;HTU21D;59019;47.638;18.966;2024-02-26T04:13:34;9.67;-3.12
71254;HTU21D;59019;47.638;18.966;2024-02-26T04:16:02;9.63;118.88
71254;HTU21D;59019;47.638;18.966;2024-02-26T04:18:32;9.60;-4.68
71254;HTU21D;59019;47.638;18.966;2024-02-26T04:20:58;9.60;-1.69
71254;HTU21D;59019;47.638;18.966;2024-02-26T04:23:24;9.60;-0.63
71254;HTU21D;59019;47.638;18.966;2024-02-26T04:25:51;9.60;-0.56
71254;HTU21D;59019;47.638;18.966;2024-02-26T04:28:19;9.61;-0.23
71254;HTU21D;59019;47.638;18.966;2024-02-26T04:30:51;9.57;0.03
71254;HTU21D;59019;47.638;18.966;2024-02-26T04:33:18;9.60;1.39
71254;HTU21D;59019;47.638;18.966;2024-02-26T04:35:44;9.54;-2.07
71254;HTU21D;59019;47.638;18.966;2024-02-26T04:38:10;9.52;1.40
71254;HTU21D;59019;47.638;18.966;2024-02-26T04:40:37;9.47;2.96
71254;HTU21D;59019;47.638;18.966;2024-02-26T04:43:03;9.45;4.99
71254;HTU21D;59019;47.638;18.966;2024-02-26T04:45:30;9.45;2.65
71254;HTU21D;59019;47.638;18.966;2024-02-26T04:47:56;9.45;5.01
71254;HTU21D;59019;47.638;18.966;2024-02-26T04:50:23;9.40;3.38
71254;HTU21D;59019;47.638;18.966;2024-02-26T04:52:49;9.42;6.26
71254;HTU21D;59019;47.638;18.966;2024-02-26T04:55:16;9.42;6.22
71254;HTU21D;59019;47.638;18.966;2024-02-26T04:57:42;9.36;3.30
71254;HTU21D;59019;47.638;18.966;2024-02-26T05:00:10;9.35;8.37
71254;HTU21D;59019;47.638;18.966;2024-02-26T05:02:37;9.29;5.71
71254;HTU21D;59019;47.638;18.966;2024-02-26T05:05:05;9.31;6.44
71254;HTU21D;59019;47.638;18.966;2024-02-26T05:07:31;9.30;6.75
71254;HTU21D;59019;47.638;18.966;2024-02-26T05:09:58;9.34;11.39
71254;HTU21D;59019;47.638;18.966;2024-02-26T05:12:25;9.29;6.07
71254;HTU21D;59019;47.638;18.966;2024-02-26T05:14:51;9.16;8.21
71254;HTU21D;59019;47.638;18.966;2024-02-26T05:17:18;9.03;17.32
71254;HTU21D;59019;47.638;18.966;2024-02-26T05:19:44;9.14;16.65
71254;HTU21D;59019;47.638;18.966;2024-02-26T05:22:10;9.19;16.25
71254;HTU21D;59019;47.638;18.966;2024-02-26T05:24:38;9.27;15.32
71254;HTU21D;59019;47.638;18.966;2024-02-26T05:27:04;9.33;15.45
71254;HTU21D;59019;47.638;18.966;2024-02-26T05:29:30;9.36;12.21
71254;HTU21D;59019;47.638;18.966;2024-02-26T05:31:57;9.37;11.23
71254;HTU21D;59019;47.638;18.966;2024-02-26T05:34:23;9.47;21.09
71254;HTU21D;59019;47.638;18.966;2024-02-26T05:36:49;9.32;14.91
71254;HTU21D;59019;47.638;18.966;2024-02-26T05:39:16;9.36;25.71
71254;HTU21D;59019;47.638;18.966;2024-02-26T05:41:43;9.52;27.22
71254;HTU21D;59019;47.638;18.966;2024-02-26T05:44:11;9.60;24.09
71254;HTU21D;59019;47.638;18.966;2024-02-26T05:46:37;9.62;19.78
71254;HTU21D;59019;47.638;18.966;2024-02-26T05:49:07;9.68;16.38
71254;HTU21D;59019;47.638;18.966;2024-02-26T05:51:36;9.71;11.55
71254;HTU21D;59019;47.638;18.966;2024-02-26T05:54:03;9.69;8.88
71254;HTU21D;59019;47.638;18.966;2024-02-26T05:56:30;9.74;3.07
71254;HTU21D;59019;47.638;18.966;2024-02-26T05:58:56;9.68;-1.71
71254;HTU21D;59019;47.638;18.966;2024-02-26T06:01:22;9.66;-3.83
71254;HTU21D;59019;47.638;18.966;2024-02-26T06:03:50;9.66;-4.38
71254;HTU21D;59019;47.638;18.966;2024-02-26T06:06:17;9.64;-5.29
71254;HTU21D;59019;47.638;18.966;2024-02-26T06:08:43;9.54;118.28
71254;HTU21D;59019;47.638;18.966;2024-02-26T06:11:10;9.53;-3.86
71254;HTU21D;59019;47.638;18.966;2024-02-26T06:13:40;9.54;-2.71
71254;HTU21D;59019;47.638;18.966;2024-02-26T06:16:08;9.61;-4.05
71254;HTU21D;59019;47.638;18.966;2024-02-26T06:18:34;9.63;-3.51
71254;HTU21D;59019;47.638;18.966;2024-02-26T06:21:00;9.66;-2.99
71254;HTU21D;59019;47.638;18.966;2024-02-26T06:23:26;9.45;-4.99
71254;HTU21D;59019;47.638;18.966;2024-02-26T06:25:57;9.50;-2.61
71254;HTU21D;59019;47.638;18.966;2024-02-26T06:28:23;9.51;0.17
71254;HTU21D;59019;47.638;18.966;2024-02-26T06:30:49;9.55;0.37
71254;HTU21D;59019;47.638;18.966;2024-02-26T06:33:18;9.59;-2.01
71254;HTU21D;59019;47.638;18.966;2024-02-26T06:35:44;9.61;-1.06
71254;HTU21D;59019;47.638;18.966;2024-02-26T06:38:11;9.66;-0.48
71254;HTU21D;59019;47.638;18.966;2024-02-26T06:40:39;9.76;1.58
71254;HTU21D;59019;47.638;18.966;2024-02-26T06:43:06;9.91;13.03
71254;HTU21D;59019;47.638;18.966;2024-02-26T06:45:33;10.01;9.54
71254;HTU21D;59019;47.638;18.966;2024-02-26T06:47:59;10.11;12.57
71254;HTU21D;59019;47.638;18.966;2024-02-26T06:50:26;10.18;10.86
71254;HTU21D;59019;47.638;18.966;2024-02-26T06:52:52;10.23;3.51
71254;HTU21D;59019;47.638;18.966;2024-02-26T06:55:18;10.27;-0.09
71254;HTU21D;59019;47.638;18.966;2024-02-26T06:57:44;10.35;-3.99
71254;HTU21D;59019;47.638;18.966;2024-02-26T07:00:11;10.40;117.89
71254;HTU21D;59019;47.638;18.966;2024-02-26T07:02:41;10.46;115.54
71254;HTU21D;59019;47.638;18.966;2024-02-26T07:05:08;10.42;113.74
71254;HTU21D;59019;47.638;18.966;2024-02-26T07:07:35;10.51;112.84
71254;HTU21D;59019;47.638;18.966;2024-02-26T07:10:02;10.56;112.77
71254;HTU21D;59019;47.638;18.966;2024-02-26T07:12:30;10.65;110.68
71254;HTU21D;59019;47.638;18.966;2024-02-26T07:14:56;10.69;110.13
71254;HTU21D;59019;47.638;18.966;2024-02-26T07:17:22;10.68;108.56
71254;HTU21D;59019;47.638;18.966;2024-02-26T07:19:49;10.64;107.75
71254;HTU21D;59019;47.638;18.966;2024-02-26T07:22:15;10.70;108.23
71254;HTU21D;59019;47.638;18.966;2024-02-26T07:24:41;10.78;108.39
71254;HTU21D;59019;47.638;18.966;2024-02-26T07:27:12;10.83;107.58
71254;HTU21D;59019;47.638;18.966;2024-02-26T07:29:38;10.87;107.34
71254;HTU21D;59019;47.638;18.966;2024-02-26T07:32:06;10.88;107.14
71254;HTU21D;59019;47.638;18.966;2024-02-26T07:34:32;10.94;107.72
71254;HTU21D;59019;47.638;18.966;2024-02-26T07:37:01;11.04;107.81
71254;HTU21D;59019;47.638;18.966;2024-02-26T07:39:28;11.03;107.37
71254;HTU21D;59019;47.638;18.966;2024-02-26T07:41:55;11.14;107.24
71254;HTU21D;59019;47.638;18.966;2024-02-26T07:44:21;11.20;106.59
71254;HTU21D;59019;47.638;18.966;2024-02-26T07:46:48;11.26;105.41
71254;HTU21D;59019;47.638;18.966;2024-02-26T07:49:14;11.32;105.60
71254;HTU21D;59019;47.638;18.966;2024-02-26T07:51:40;11.40;105.05
71254;HTU21D;59019;47.638;18.966;2024-02-26T07:54:06;11.48;105.08
71254;HTU21D;59019;47.638;18.966;2024-02-26T07:56:32;11.58;104.97
71254;HTU21D;59019;47.638;18.966;2024-02-26T07:58:59;11.71;104.15
71254;HTU21D;59019;47.638;18.966;2024-02-26T08:01:25;11.81;104.20
71254;HTU21D;59019;47.638;18.966;2024-02-26T08:03:53;11.96;105.60
71254;HTU21D;59019;47.638;18.966;2024-02-26T08:06:20;12.05;105.05
71254;HTU21D;59019;47.638;18.966;2024-02-26T08:08:46;12.20;103.91
71254;HTU21D;59019;47.638;18.966;2024-02-26T08:11:14;12.20;102.01
71254;HTU21D;59019;47.638;18.966;2024-02-26T08:13:45;12.21;101.77
71254;HTU21D;59019;47.638;18.966;2024-02-26T08:16:12;12.23;101.31
71254;HTU21D;59019;47.638;18.966;2024-02-26T08:18:38;12.25;101.01
71254;HTU21D;59019;47.638;18.966;2024-02-26T08:21:04;12.38;101.31
71254;HTU21D;59019;47.638;18.966;2024-02-26T08:23:31;12.47;100.67
71254;HTU21D;59019;47.638;18.966;2024-02-26T08:25:57;12.59;100.77
71254;HTU21D;59019;47.638;18.966;2024-02-26T08:28:24;12.61;100.68
71254;HTU21D;59019;47.638;18.966;2024-02-26T08:30:50;12.71;100.09
71254;HTU21D;59019;47.638;18.966;2024-02-26T08:33:16;12.69;99.26
71254;HTU21D;59019;47.638;18.966;2024-02-26T08:35:42;12.65;99.07
71254;HTU21D;59019;47.638;18.966;2024-02-26T08:38:09;12.66;99.08
71254;HTU21D;59019;47.638;18.966;2024-02-26T08:40:36;12.60;98.98
71254;HTU21D;59019;47.638;18.966;2024-02-26T08:43:03;12.49;99.17
71254;HTU21D;59019;47.638;18.966;2024-02-26T08:45:29;12.43;100.16
71254;HTU21D;59019;47.638;18.966;2024-02-26T08:47:56;12.36;100.68
71254;HTU21D;59019;47.638;18.966;2024-02-26T08:50:24;12.46;101.42
71254;HTU21D;59019;47.638;18.966;2024-02-26T08:52:50;12.48;101.12
71254;HTU21D;59019;47.638;18.966;2024-02-26T08:55:19;12.55;101.18
71254;HTU21D;59019;47.638;18.966;2024-02-26T08:57:45;12.57;100.78
71254;HTU21D;59019;47.638;18.966;2024-02-26T09:00:13;12.55;100.04
71254;HTU21D;59019;47.638;18.966;2024-02-26T09:02:41;12.56;100.07
71254;HTU21D;59019;47.638;18.966;2024-02-26T09:05:10;12.53;100.18
71254;HTU21D;59019;47.638;18.966;2024-02-26T09:07:37;12.66;100.38
71254;HTU21D;59019;47.638;18.966;2024-02-26T09:10:05;12.85;100.29
71254;HTU21D;59019;47.638;18.966;2024-02-26T09:12:34;12.88;98.95
71254;HTU21D;59019;47.638;18.966;2024-02-26T09:15:00;12.88;99.03
71254;HTU21D;59019;47.638;18.966;2024-02-26T09:17:30;12.88;99.50
71254;HTU21D;59019;47.638;18.966;2024-02-26T09:19:56;12.84;98.98
71254;HTU21D;59019;47.638;18.966;2024-02-26T09:22:27;12.76;98.98
71254;HTU21D;59019;47.638;18.966;2024-02-26T09:24:53;12.79;99.47
71254;HTU21D;59019;47.638;18.966;2024-02-26T09:27:19;12.71;99.10
71254;HTU21D;59019;47.638;18.966;2024-02-26T09:29:46;12.57;99.23
71254;HTU21D;59019;47.638;18.966;2024-02-26T09:32:13;12.58;99.66
71254;HTU21D;59019;47.638;18.966;2024-02-26T09:34:40;12.47;100.25
71254;HTU21D;59019;47.638;18.966;2024-02-26T09:37:07;12.43;100.38
71254;HTU21D;59019;47.638;18.966;2024-02-26T09:39:33;12.34;100.68
71254;HTU21D;59019;47.638;18.966;2024-02-26T09:42:04;12.36;101.44
71254;HTU21D;59019;47.638;18.966;2024-02-26T09:44:31;12.43;101.82
71254;HTU21D;59019;47.638;18.966;2024-02-26T09:47:03;12.47;101.96
71254;HTU21D;59019;47.638;18.966;2024-02-26T09:49:29;12.49;102.06
71254;HTU21D;59019;47.638;18.966;2024-02-26T09:51:56;12.47;101.33
71254;HTU21D;59019;47.638;18.966;2024-02-26T09:54:24;12.48;101.94
71254;HTU21D;59019;47.638;18.966;2024-02-26T09:56:54;12.52;101.51
71254;HTU21D;59019;47.638;18.966;2024-02-26T09:59:23;12.57;101.49
71254;HTU21D;59019;47.638;18.966;2024-02-26T10:01:49;12.73;101.87
71254;HTU21D;59019;47.638;18.966;2024-02-26T10:04:16;12.80;101.75
71254;HTU21D;59019;47.638;18.966;2024-02-26T10:06:43;12.91;101.37
71254;HTU21D;59019;47.638;18.966;2024-02-26T10:09:11;13.05;101.34
71254;HTU21D;59019;47.638;18.966;2024-02-26T10:11:38;13.03;100.78
71254;HTU21D;59019;47.638;18.966;2024-02-26T10:14:06;13.15;100.73
71254;HTU21D;59019;47.638;18.966;2024-02-26T10:16:32;13.21;100.09
71254;HTU21D;59019;47.638;18.966;2024-02-26T10:19:00;13.22;99.68
71254;HTU21D;59019;47.638;18.966;2024-02-26T10:21:27;13.23;100.25
71254;HTU21D;59019;47.638;18.966;2024-02-26T10:23:54;13.30;99.96
71254;HTU21D;59019;47.638;18.966;2024-02-26T10:26:20;13.52;99.69
71254;HTU21D;59019;47.638;18.966;2024-02-26T10:28:47;13.94;100.09
71254;HTU21D;59019;47.638;18.966;2024-02-26T10:31:18;14.26;97.67
71254;HTU21D;59019;47.638;18.966;2024-02-26T10:33:45;14.34;96.44
71254;HTU21D;59019;47.638;18.966;2024-02-26T10:36:12;14.37;96.55
71254;HTU21D;59019;47.638;18.966;2024-02-26T10:38:38;14.37;95.98
71254;HTU21D;59019;47.638;18.966;2024-02-26T10:41:06;14.29;96.10
71254;HTU21D;59019;47.638;18.966;2024-02-26T10:43:33;14.22;95.00
71254;HTU21D;59019;47.638;18.966;2024-02-26T10:46:00;14.28;94.43
71254;HTU21D;59019;47.638;18.966;2024-02-26T10:48:26;14.45;95.30
71254;HTU21D;59019;47.638;18.966;2024-02-26T10:50:52;14.72;94.77
71254;HTU21D;59019;47.638;18.966;2024-02-26T10:53:22;15.08;93.01
71254;HTU21D;59019;47.638;18.966;2024-02-26T10:55:54;15.14;91.40
71254;HTU21D;59019;47.638;18.966;2024-02-26T10:58:22;15.43;91.57
71254;HTU21D;59019;47.638;18.966;2024-02-26T11:00:51;15.56;91.72
71254;HTU21D;59019;47.638;18.966;2024-02-26T11:03:18;15.60;91.10
71254;HTU21D;59019;47.638;18.966;2024-02-26T11:05:47;15.77;91.10
71254;HTU21D;59019;47.638;18.966;2024-02-26T11:08:14;15.91;90.02
71254;HTU21D;59019;47.638;18.966;2024-02-26T11:10:42;15.96;89.41
71254;HTU21D;59019;47.638;18.966;2024-02-26T11:13:09;16.01;88.86
71254;HTU21D;59019;47.638;18.966;2024-02-26T11:15:37;16.07;89.17
71254;HTU21D;59019;47.638;18.966;2024-02-26T11:18:04;16.04;88.67
71254;HTU21D;59019;47.638;18.966;2024-02-26T11:20:32;16.04;88.89
71254;HTU21D;59019;47.638;18.966;2024-02-26T11:22:59;16.12;88.60
71254;HTU21D;59019;47.638;18.966;2024-02-26T11:25:25;15.97;87.52
71254;HTU21D;59019;47.638;18.966;2024-02-26T11:27:59;16.07;88.01
71254;HTU21D;59019;47.638;18.966;2024-02-26T11:30:30;16.10;87.79
71254;HTU21D;59019;47.638;18.966;2024-02-26T11:32:57;16.13;88.17
71254;HTU21D;59019;47.638;18.966;2024-02-26T11:35:24;16.31;88.10
71254;HTU21D;59019;47.638;18.966;2024-02-26T11:38:16;16.43;85.90
71254;HTU21D;59019;47.638;18.966;2024-02-26T11:40:44;16.46;85.92
71254;HTU21D;59019;47.638;18.966;2024-02-26T11:43:14;16.42;86.01
71254;HTU21D;59019;47.638;18.966;2024-02-26T11:48:23;16.62;86.34
71254;HTU21D;59019;47.638;18.966;2024-02-26T11:50:54;16.58;85.74
71254;HTU21D;59019;47.638;18.966;2024-02-26T11:53:31;16.61;85.70
71254;HTU21D;59019;47.638;18.966;2024-02-26T11:58:46;16.84;85.87
71254;HTU21D;59019;47.638;18.966;2024-02-26T12:01:41;16.76;84.61
71254;HTU21D;59019;47.638;18.966;2024-02-26T12:04:27;16.77;85.75
71254;HTU21D;59019;47.638;18.966;2024-02-26T12:07:14;16.61;82.95
71254;HTU21D;59019;47.638;18.966;2024-02-26T12:09:41;16.62;82.75
71254;HTU21D;59019;47.638;18.966;2024-02-26T12:12:09;16.48;83.26
71254;HTU21D;59019;47.638;18.966;2024-02-26T12:14:56;16.58;83.36
71254;HTU21D;59019;47.638;18.966;2024-02-26T12:17:23;16.64;82.95
71254;HTU21D;59019;47.638;18.966;2024-02-26T12:19:50;16.72;83.21
71254;HTU21D;59019;47.638;18.966;2024-02-26T12:22:17;16.51;81.70
71254;HTU21D;59019;47.638;18.966;2024-02-26T12:24:43;16.18;82.71
71254;HTU21D;59019;47.638;18.966;2024-02-26T12:27:09;15.89;82.72
71254;HTU21D;59019;47.638;18.966;2024-02-26T12:29:36;15.85;83.41
71254;HTU21D;59019;47.638;18.966;2024-02-26T12:32:04;15.96;84.13
71254;HTU21D;59019;47.638;18.966;2024-02-26T12:34:31;16.03;84.26
71254;HTU21D;59019;47.638;18.966;2024-02-26T12:36:57;16.04;84.68
71254;HTU21D;59019;47.638;18.966;2024-02-26T12:39:24;15.99;83.71
71254;HTU21D;59019;47.638;18.966;2024-02-26T12:41:51;15.69;83.62
71254;HTU21D;59019;47.638;18.966;2024-02-26T12:44:25;15.57;84.80
71254;HTU21D;59019;47.638;18.966;2024-02-26T12:47:00;15.45;84.05
71254;HTU21D;59019;47.638;18.966;2024-02-26T12:49:29;14.84;85.50
71254;HTU21D;59019;47.638;18.966;2024-02-26T12:52:00;14.94;86.18
71254;HTU21D;59019;47.638;18.966;2024-02-26T12:54:29;14.59;86.80
71254;HTU21D;59019;47.638;18.966;2024-02-26T12:56:58;14.72;87.06
71254;HTU21D;59019;47.638;18.966;2024-02-26T12:59:25;14.87;86.83
71254;HTU21D;59019;47.638;18.966;2024-02-26T13:01:51;15.04;86.50
71254;HTU21D;59019;47.638;18.966;2024-02-26T13:04:18;15.22;86.18
71254;HTU21D;59019;47.638;18.966;2024-02-26T13:06:44;15.44;86.02
71254;HTU21D;59019;47.638;18.966;2024-02-26T13:09:15;15.58;85.55
71254;HTU21D;59019;47.638;18.966;2024-02-26T13:11:44;15.55;85.68
71254;HTU21D;59019;47.638;18.966;2024-02-26T13:14:20;15.74;86.41
71254;HTU21D;59019;47.638;18.966;2024-02-26T13:16:56;16.05;86.48
71254;HTU21D;59019;47.638;18.966;2024-02-26T13:19:23;16.22;83.84
71254;HTU21D;59019;47.638;18.966;2024-02-26T13:21:49;16.34;83.32
71254;HTU21D;59019;47.638;18.966;2024-02-26T13:24:16;16.16;82.75
71254;HTU21D;59019;47.638;18.966;2024-02-26T13:26:43;16.05;83.38
71254;HTU21D;59019;47.638;18.966;2024-02-26T13:29:16;15.93;83.78
71254;HTU21D;59019;47.638;18.966;2024-02-26T13:31:43;15.99;83.36
71254;HTU21D;59019;47.638;18.966;2024-02-26T13:34:09;15.98;83.56
71254;HTU21D;59019;47.638;18.966;2024-02-26T13:36:35;16.07;82.94
71254;HTU21D;59019;47.638;18.966;2024-02-26T13:39:01;16.37;83.16
71254;HTU21D;59019;47.638;18.966;2024-02-26T13:41:30;16.66;82.28
71254;HTU21D;59019;47.638;18.966;2024-02-26T13:43:58;17.11;81.94
71254;HTU21D;59019;47.638;18.966;2024-02-26T13:46:24;17.06;79.33
71254;HTU21D;59019;47.638;18.966;2024-02-26T13:48:51;16.88;79.25
71254;HTU21D;59019;47.638;18.966;2024-02-26T13:51:19;16.81;79.07
71254;HTU21D;59019;47.638;18.966;2024-02-26T13:53:45;17.10;79.69
71254;HTU21D;59019;47.638;18.966;2024-02-26T13:56:12;17.21;79.37
71254;HTU21D;59019;47.638;18.966;2024-02-26T13:58:39;17.51;79.66
71254;HTU21D;59019;47.638;18.966;2024-02-26T14:01:05;17.97;78.90
71254;HTU21D;59019;47.638;18.966;2024-02-26T14:03:32;18.20;76.28
71254;HTU21D;59019;47.638;18.966;2024-02-26T14:05:58;18.17;76.19
71254;HTU21D;59019;47.638;18.966;2024-02-26T14:08:29;18.26;75.33
71254;HTU21D;59019;47.638;18.966;2024-02-26T14:10:55;18.03;75.38
71254;HTU21D;59019;47.638;18.966;2024-02-26T14:13:22;17.82;75.66
71254;HTU21D;59019;47.638;18.966;2024-02-26T14:15:49;17.69;77.78
71254;HTU21D;59019;47.638;18.966;2024-02-26T14:18:15;17.30;76.73
71254;HTU21D;59019;47.638;18.966;2024-02-26T14:20:41;17.24;77.21
71254;HTU21D;59019;47.638;18.966;2024-02-26T14:23:08;17.31;78.39
71254;HTU21D;59019;47.638;18.966;2024-02-26T14:25:35;17.25;78.01
71254;HTU21D;59019;47.638;18.966;2024-02-26T14:28:01;16.86;77.92
71254;HTU21D;59019;47.638;18.966;2024-02-26T14:30:27;16.06;79.04
71254;HTU21D;59019;47.638;18.966;2024-02-26T14:32:53;16.14;79.55
71254;HTU21D;59019;47.638;18.966;2024-02-26T14:35:20;15.97;80.17
71254;HTU21D;59019;47.638;18.966;2024-02-26T14:37:47;15.72;80.81
71254;HTU21D;59019;47.638;18.966;2024-02-26T14:40:17;15.62;82.23
71254;HTU21D;59019;47.638;18.966;2024-02-26T14:42:44;15.59;82.23
71254;HTU21D;59019;47.638;18.966;2024-02-26T14:45:10;15.36;82.69
71254;HTU21D;59019;47.638;18.966;2024-02-26T14:47:37;15.31;83.43
71254;HTU21D;59019;47.638;18.966;2024-02-26T14:50:04;15.29;84.38
71254;HTU21D;59019;47.638;18.966;2024-02-26T14:52:30;15.32;85.51
71254;HTU21D;59019;47.638;18.966;2024-02-26T14:54:56;15.32;85.26
71254;HTU21D;59019;47.638;18.966;2024-02-26T14:57:24;15.23;84.57
71254;HTU21D;59019;47.638;18.966;2024-02-26T14:59:50;15.01;85.31
71254;HTU21D;59019;47.638;18.966;2024-02-26T15:02:16;15.12;85.55
71254;HTU21D;59019;47.638;18.966;2024-02-26T15:04:43;15.14;85.18
71254;HTU21D;59019;47.638;18.966;2024-02-26T15:07:10;15.19;85.16
71254;HTU21D;59019;47.638;18.966;2024-02-26T15:09:37;15.19;85.85